Time;durP1;ratioP1;P1;durP2;ratioP2;P2;SDS_P1;SDS_P2;PMS_P1;PMS_P2;Temp;Humidity;BMP_temperature;BMP_pressure;BME280_temperature;BME280_humidity;BME280_pressure;Samples;Min_cycle;Max_cycle;Signal;HPM_P1;HPM_P2
2022/01/16 00:00:26;;;;;;;;;;;;;;;2.2;94.84375;102370.6;;;;-77
2022/01/16 00:05:25;;;;;;;;;;;;;;;2.21;94.87891;102353.4;;;;-77
2022/01/16 00:10:27;;;;;;;;;;;;;;;2.22;94.82813;102347.3;;;;-77
2022/01/16 00:15:25;;;;;;;;;;;;;;;2.24;94.86523;102365.7;;;;-76
2022/01/16 00:20:26;;;;;;;;;;;;;;;2.24;94.89551;102357.2;;;;-77
2022/01/16 00:25:25;;;;;;;;;;;;;;;2.26;94.93359;102364.5;;;;-77
2022/01/16 00:30:25;;;;;;;;;;;;;;;2.28;94.90527;102362.2;;;;-77
2022/01/16 00:33:23;;;;;;;54.4;16.9;;;;;;;;;;;;;-77
2022/01/16 00:35:25;;;;;;;;;;;;;;;2.29;94.89648;102358.8;;;;-77
2022/01/16 00:40:25;;;;;;;;;;;;;;;2.31;94.90039;102359.2;;;;-77
2022/01/16 00:45:25;;;;;;;;;;;;;;;2.32;94.9043;102369.8;;;;-77
2022/01/16 00:50:26;;;;;;;;;;;;;;;2.34;94.89551;102365.1;;;;-77
2022/01/16 00:55:25;;;;;;;;;;;;;;;2.35;94.91016;102336.2;;;;-78
2022/01/16 01:00:27;;;;;;;;;;;;;;;2.37;94.93457;102348.4;;;;-77
2022/01/16 01:03:23;;;;;;;59.5;16.5;;;;;;;;;;;;;-77
2022/01/16 01:05:25;;;;;;;;;;;;;;;2.39;94.92969;102311.2;;;;-77
2022/01/16 01:10:30;;;;;;;;;;;;;;;2.4;94.9873;102310.2;;;;-77
2022/01/16 01:15:29;;;;;;;;;;;;;;;2.43;95.02637;102318.1;;;;-77
2022/01/16 01:20:26;;;;;;;;;;;;;;;2.46;95.10742;102321.9;;;;-78
2022/01/16 01:25:25;;;;;;;;;;;;;;;2.48;95.11426;102324.1;;;;-77
2022/01/16 01:30:25;;;;;;;;;;;;;;;2.51;95.24707;102316.1;;;;-77
2022/01/16 01:33:24;;;;;;;53.9;17;;;;;;;;;;;;;-77
2022/01/16 01:35:26;;;;;;;;;;;;;;;2.53;95.3291;102337.3;;;;-78
2022/01/16 01:40:26;;;;;;;;;;;;;;;2.56;95.44336;102334.7;;;;-78
2022/01/16 01:55:25;;;;;;;;;;;;;;;2.65;95.40918;102245.9;;;;-79
2022/01/16 02:00:25;;;;;;;;;;;;;;;2.68;95.41602;102277;;;;-79
2022/01/16 02:03:27;;;;;;;65.4;18.1;;;;;;;;;;;;;-79
2022/01/16 02:05:25;;;;;;;;;;;;;;;2.71;95.43262;102312.4;;;;-79
2022/01/16 02:10:25;;;;;;;;;;;;;;;2.74;95.46191;102313.5;;;;-79
2022/01/16 02:15:49;;;;;;;;;;;;;;;2.76;95.50879;102327.4;;;;-79
2022/01/16 02:34:30;;;;;;;57.3;17.8;;;;;;;;;;;;;-79
2022/01/16 02:35:25;;;;;;;;;;;;;;;2.83;95.48242;102317.2;;;;-79
2022/01/16 02:40:27;;;;;;;;;;;;;;;2.85;95.48828;102311;;;;-79
2022/01/16 02:45:37;;;;;;;;;;;;;;;2.86;95.43457;102305.2;;;;-79
2022/01/16 02:50:25;;;;;;;;;;;;;;;2.88;95.40625;102312.1;;;;-79
2022/01/16 02:55:25;;;;;;;;;;;;;;;2.89;95.38672;102288.8;;;;-77
2022/01/16 03:00:26;;;;;;;;;;;;;;;2.9;95.31445;102290.6;;;;-77
2022/01/16 03:03:21;;;;;;;53.1;18;;;;;;;;;;;;;-77
2022/01/16 03:05:25;;;;;;;;;;;;;;;2.92;95.39453;102281.8;;;;-77
2022/01/16 03:15:26;;;;;;;;;;;;;;;2.92;95.36133;102278;;;;-78
2022/01/16 03:25:25;;;;;;;;;;;;;;;2.93;95.39648;102248.6;;;;-78
2022/01/16 03:30:25;;;;;;;;;;;;;;;2.94;95.35254;102253.2;;;;-77
2022/01/16 03:33:21;;;;;;;49.6;15.8;;;;;;;;;;;;;-78
2022/01/16 03:35:25;;;;;;;;;;;;;;;2.94;95.3877;102253.8;;;;-77
2022/01/16 03:40:25;;;;;;;;;;;;;;;2.95;95.38965;102239.8;;;;-78
2022/01/16 03:45:25;;;;;;;;;;;;;;;2.96;95.41309;102230.4;;;;-77
2022/01/16 03:50:25;;;;;;;;;;;;;;;2.97;95.42578;102243.2;;;;-78
2022/01/16 03:55:25;;;;;;;;;;;;;;;2.97;95.36133;102238.1;;;;-79
2022/01/16 04:00:25;;;;;;;;;;;;;;;2.98;95.35254;102233.8;;;;-77
2022/01/16 04:03:20;;;;;;;46.4;15.1;;;;;;;;;;;;;-78
2022/01/16 04:05:25;;;;;;;;;;;;;;;2.99;95.2998;102232.3;;;;-78
2022/01/16 04:10:25;;;;;;;;;;;;;;;3;95.26074;102237;;;;-79
2022/01/16 04:15:37;;;;;;;;;;;;;;;2.99;95.25879;102234.4;;;;-79
2022/01/16 04:20:25;;;;;;;;;;;;;;;2.99;95.20313;102226;;;;-79
2022/01/16 04:25:25;;;;;;;;;;;;;;;2.98;95.125;102216.5;;;;-78
2022/01/16 04:30:25;;;;;;;;;;;;;;;2.98;95.22266;102222.1;;;;-79
2022/01/16 04:33:20;;;;;;;35.9;12.9;;;;;;;;;;;;;-78
2022/01/16 04:35:25;;;;;;;;;;;;;;;2.99;95.25684;102220.7;;;;-79
2022/01/16 04:40:25;;;;;;;;;;;;;;;2.99;95.20313;102214.4;;;;-79
2022/01/16 04:45:25;;;;;;;;;;;;;;;2.99;95.16992;102217.3;;;;-79
2022/01/16 04:50:27;;;;;;;;;;;;;;;2.99;95.1377;102222.1;;;;-78
2022/01/16 04:55:28;;;;;;;;;;;;;;;3.01;95.25;102216;;;;-79
2022/01/16 05:00:25;;;;;;;;;;;;;;;3.03;95.2666;102202.9;;;;-78
2022/01/16 05:03:20;;;;;;;28.6;11;;;;;;;;;;;;;-79
2022/01/16 05:05:25;;;;;;;;;;;;;;;3.06;95.31641;102196.3;;;;-78
2022/01/16 05:10:25;;;;;;;;;;;;;;;3.11;95.21777;102204.7;;;;-78
2022/01/16 05:20:25;;;;;;;;;;;;;;;3.15;95.22852;102196.4;;;;-79
2022/01/16 05:25:26;;;;;;;;;;;;;;;3.19;95.1709;102208.4;;;;-79
2022/01/16 05:30:25;;;;;;;;;;;;;;;3.24;95.21582;102211.7;;;;-79
2022/01/16 05:33:19;;;;;;;23.7;9.5;;;;;;;;;;;;;-79
2022/01/16 05:35:25;;;;;;;;;;;;;;;3.28;95.16992;102217.9;;;;-78
2022/01/16 05:40:25;;;;;;;;;;;;;;;3.33;95.18164;102223.5;;;;-78
2022/01/16 05:45:25;;;;;;;;;;;;;;;3.36;95.05762;102219.7;;;;-78
2022/01/16 05:50:28;;;;;;;;;;;;;;;3.39;95.12012;102218.5;;;;-80
2022/01/16 05:55:27;;;;;;;;;;;;;;;3.42;95.05859;102221.3;;;;-79
2022/01/16 06:00:25;;;;;;;;;;;;;;;3.44;95;102210.4;;;;-79
2022/01/16 06:03:20;;;;;;;24.9;8.9;;;;;;;;;;;;;-78
2022/01/16 06:05:25;;;;;;;;;;;;;;;3.49;95.00781;102200.3;;;;-79
2022/01/16 06:10:25;;;;;;;;;;;;;;;3.51;95.08984;102203.2;;;;-79
2022/01/16 06:15:26;;;;;;;;;;;;;;;3.52;94.96191;102204.8;;;;-79
2022/01/16 06:20:25;;;;;;;;;;;;;;;3.55;94.97852;102215.5;;;;-77
2022/01/16 06:25:25;;;;;;;;;;;;;;;3.57;94.90918;102213.1;;;;-78
2022/01/16 06:30:25;;;;;;;;;;;;;;;3.59;94.78027;102213.7;;;;-78
2022/01/16 06:33:18;;;;;;;20;8;;;;;;;;;;;;;-77
2022/01/16 06:35:28;;;;;;;;;;;;;;;3.61;94.83203;102212.8;;;;-78
2022/01/16 06:40:25;;;;;;;;;;;;;;;3.64;94.88184;102217.7;;;;-78
2022/01/16 06:45:25;;;;;;;;;;;;;;;3.66;94.75586;102228.8;;;;-77
2022/01/16 06:50:25;;;;;;;;;;;;;;;3.7;94.78711;102235.9;;;;-78
2022/01/16 06:55:25;;;;;;;;;;;;;;;3.75;94.70996;102243.7;;;;-78
2022/01/16 07:00:25;;;;;;;;;;;;;;;3.8;94.76367;102251.6;;;;-79
2022/01/16 07:03:18;;;;;;;12.6;5.5;;;;;;;;;;;;;-78
2022/01/16 07:05:25;;;;;;;;;;;;;;;3.82;94.55273;102255.3;;;;-79
2022/01/16 07:10:26;;;;;;;;;;;;;;;3.85;94.49316;102267.5;;;;-79
2022/01/16 07:15:25;;;;;;;;;;;;;;;3.89;94.54492;102269.4;;;;-78
2022/01/16 07:20:25;;;;;;;;;;;;;;;3.91;94.31055;102273.2;;;;-77
2022/01/16 07:25:25;;;;;;;;;;;;;;;3.95;94.21191;102287;;;;-77
2022/01/16 07:30:25;;;;;;;;;;;;;;;3.97;94.16113;102298.8;;;;-77
2022/01/16 07:33:18;;;;;;;10.2;4.2;;;;;;;;;;;;;-78
2022/01/16 07:35:25;;;;;;;;;;;;;;;3.99;94.05664;102292.6;;;;-78
2022/01/16 07:40:28;;;;;;;;;;;;;;;4;93.96289;102301.7;;;;-79
2022/01/16 07:45:25;;;;;;;;;;;;;;;4.02;93.88086;102317;;;;-78
2022/01/16 07:50:25;;;;;;;;;;;;;;;4.04;93.93848;102306.8;;;;-79
2022/01/16 07:55:26;;;;;;;;;;;;;;;4.06;93.89941;102310.9;;;;-77
2022/01/16 08:00:25;;;;;;;;;;;;;;;4.1;93.93945;102326.3;;;;-77
2022/01/16 08:03:17;;;;;;;9.6;4.4;;;;;;;;;;;;;-77
2022/01/16 08:05:25;;;;;;;;;;;;;;;4.12;93.83496;102333.6;;;;-77
2022/01/16 08:10:25;;;;;;;;;;;;;;;4.15;93.75586;102341.4;;;;-77
2022/01/16 08:15:25;;;;;;;;;;;;;;;4.18;93.78418;102336;;;;-77
2022/01/16 08:20:25;;;;;;;;;;;;;;;4.22;93.78125;102317.9;;;;-78
2022/01/16 08:25:25;;;;;;;;;;;;;;;4.26;93.85352;102326.3;;;;-79
2022/01/16 08:30:25;;;;;;;;;;;;;;;4.29;93.74414;102320.9;;;;-78
2022/01/16 08:33:17;;;;;;;9.8;4.4;;;;;;;;;;;;;-79
2022/01/16 08:35:25;;;;;;;;;;;;;;;4.33;93.67383;102318.9;;;;-78
2022/01/16 08:40:25;;;;;;;;;;;;;;;4.36;93.61719;102326.3;;;;-78
2022/01/16 08:45:25;;;;;;;;;;;;;;;4.39;93.51367;102325.8;;;;-79
2022/01/16 08:50:25;;;;;;;;;;;;;;;4.43;93.45898;102332.2;;;;-78
2022/01/16 08:55:25;;;;;;;;;;;;;;;4.47;93.36914;102335.5;;;;-77
2022/01/16 09:00:25;;;;;;;;;;;;;;;4.51;93.42871;102346.7;;;;-78
2022/01/16 09:03:17;;;;;;;12;4.5;;;;;;;;;;;;;-78
2022/01/16 09:05:25;;;;;;;;;;;;;;;4.54;93.33887;102364.2;;;;-77
2022/01/16 09:10:25;;;;;;;;;;;;;;;4.56;93.26855;102366.6;;;;-77
2022/01/16 09:15:25;;;;;;;;;;;;;;;4.59;93.15723;102361.2;;;;-77
2022/01/16 09:20:26;;;;;;;;;;;;;;;4.63;93.18457;102365;;;;-78
2022/01/16 09:25:25;;;;;;;;;;;;;;;4.66;93.12793;102369.4;;;;-79
2022/01/16 09:30:26;;;;;;;;;;;;;;;4.69;93.05957;102371.1;;;;-78
2022/01/16 09:33:17;;;;;;;13;4.9;;;;;;;;;;;;;-78
2022/01/16 09:35:25;;;;;;;;;;;;;;;4.74;93.07813;102372.8;;;;-78
2022/01/16 09:40:26;;;;;;;;;;;;;;;4.78;93.05371;102384.5;;;;-78
2022/01/16 09:45:25;;;;;;;;;;;;;;;4.82;92.97754;102393.3;;;;-79
2022/01/16 09:50:27;;;;;;;;;;;;;;;4.86;92.9834;102398.1;;;;-79
2022/01/16 09:55:25;;;;;;;;;;;;;;;4.9;92.87402;102400.7;;;;-77
2022/01/16 10:00:27;;;;;;;;;;;;;;;4.94;92.81641;102404.6;;;;-79
2022/01/16 10:03:27;;;;;;;13.8;5.1;;;;;;;;;;;;;-78
2022/01/16 10:05:34;;;;;;;;;;;;;;;4.98;92.70508;102412.5;;;;-78
2022/01/16 10:10:28;;;;;;;;;;;;;;;5.02;92.6709;102408.7;;;;-78
2022/01/16 10:15:26;;;;;;;;;;;;;;;5.06;92.56934;102418.2;;;;-80
2022/01/16 10:20:25;;;;;;;;;;;;;;;5.1;92.55762;102417.4;;;;-81
2022/01/16 10:25:35;;;;;;;;;;;;;;;5.15;92.49121;102414.7;;;;-75
2022/01/16 10:30:25;;;;;;;;;;;;;;;5.21;92.55957;102406.6;;;;-78
2022/01/16 10:33:20;;;;;;;14;5.2;;;;;;;;;;;;;-77
2022/01/16 10:35:27;;;;;;;;;;;;;;;5.28;92.5293;102412.9;;;;-78
2022/01/16 10:40:28;;;;;;;;;;;;;;;5.34;92.45605;102415.4;;;;-77
2022/01/16 10:45:27;;;;;;;;;;;;;;;5.39;92.41309;102412.2;;;;-77
2022/01/16 10:50:28;;;;;;;;;;;;;;;5.45;92.29395;102410.9;;;;-77
2022/01/16 10:55:26;;;;;;;;;;;;;;;5.49;92.04395;102412.1;;;;-78
2022/01/16 11:00:25;;;;;;;;;;;;;;;5.54;92.00781;102418.8;;;;-77
2022/01/16 11:03:18;;;;;;;11.6;4.5;;;;;;;;;;;;;-76
2022/01/16 11:05:26;;;;;;;;;;;;;;;5.59;91.67285;102419.3;;;;-78
2022/01/16 11:10:33;;;;;;;;;;;;;;;5.64;91.59375;102413.2;;;;-77
2022/01/16 11:15:25;;;;;;;;;;;;;;;5.67;91.24121;102418.7;;;;-77
2022/01/16 11:20:28;;;;;;;;;;;;;;;5.72;91.08691;102419.7;;;;-75
2022/01/16 11:25:31;;;;;;;;;;;;;;;5.77;90.94629;102428.4;;;;-81
2022/01/16 11:30:25;;;;;;;;;;;;;;;5.81;90.86621;102429.1;;;;-79
2022/01/16 11:33:16;;;;;;;12.9;4;;;;;;;;;;;;;-80
2022/01/16 11:35:25;;;;;;;;;;;;;;;5.86;90.6709;102411.6;;;;-80
2022/01/16 11:40:44;;;;;;;;;;;;;;;5.91;90.50586;102428.2;;;;-79
2022/01/16 11:45:26;;;;;;;;;;;;;;;5.96;90.32031;102436.8;;;;-78
2022/01/16 11:50:37;;;;;;;;;;;;;;;6.01;90.34277;102431.3;;;;-79
2022/01/16 11:55:35;;;;;;;;;;;;;;;6.06;90.36328;102432.3;;;;-80
2022/01/16 12:00:40;;;;;;;;;;;;;;;6.13;90.3418;102428.3;;;;-79
2022/01/16 12:03:27;;;;;;;9.5;4;;;;;;;;;;;;;-80
2022/01/16 12:05:28;;;;;;;;;;;;;;;6.17;90.12207;102431;;;;-80
2022/01/16 12:10:36;;;;;;;;;;;;;;;6.22;89.92578;102421.4;;;;-78
2022/01/16 12:15:27;;;;;;;;;;;;;;;6.26;89.70605;102427.1;;;;-78
2022/01/16 12:20:30;;;;;;;;;;;;;;;6.32;89.52051;102436.9;;;;-78
2022/01/16 12:25:26;;;;;;;;;;;;;;;6.38;89.76172;102438.5;;;;-79
2022/01/16 12:30:32;;;;;;;;;;;;;;;6.43;89.80566;102444.4;;;;-80
2022/01/16 12:33:25;;;;;;;16.1;4.4;;;;;;;;;;;;;-80
2022/01/16 12:35:36;;;;;;;;;;;;;;;6.47;89.81445;102437.5;;;;-79
2022/01/16 12:40:27;;;;;;;;;;;;;;;6.51;90.12793;102433;;;;-79
2022/01/16 12:45:25;;;;;;;;;;;;;;;6.56;90.08301;102440;;;;-79
2022/01/16 12:50:25;;;;;;;;;;;;;;;6.6;90.01367;102437.8;;;;-79
2022/01/16 12:55:29;;;;;;;;;;;;;;;6.62;90.00879;102441.5;;;;-79
2022/01/16 13:00:25;;;;;;;;;;;;;;;6.66;90.37891;102438.7;;;;-78
2022/01/16 13:03:26;;;;;;;8.8;4.2;;;;;;;;;;;;;-79
2022/01/16 13:05:26;;;;;;;;;;;;;;;6.68;90.14258;102433.9;;;;-79
2022/01/16 13:10:25;;;;;;;;;;;;;;;6.72;90.2373;102436.6;;;;-80
2022/01/16 13:15:28;;;;;;;;;;;;;;;6.75;90.18848;102434.5;;;;-80
2022/01/16 13:20:27;;;;;;;;;;;;;;;6.8;90.51465;102434.4;;;;-79
2022/01/16 13:25:25;;;;;;;;;;;;;;;6.83;90.56641;102433.1;;;;-82
2022/01/16 13:30:29;;;;;;;;;;;;;;;6.85;90.51563;102433;;;;-80
2022/01/16 13:33:19;;;;;;;10.9;4.4;;;;;;;;;;;;;-80
2022/01/16 13:35:29;;;;;;;;;;;;;;;6.88;90.43359;102435.9;;;;-79
2022/01/16 13:40:26;;;;;;;;;;;;;;;6.91;90.58398;102444.7;;;;-78
2022/01/16 13:45:27;;;;;;;;;;;;;;;6.94;90.74219;102442.9;;;;-79
2022/01/16 13:50:25;;;;;;;;;;;;;;;6.95;90.68945;102443;;;;-79
2022/01/16 13:55:26;;;;;;;;;;;;;;;6.97;90.63867;102454.4;;;;-80
2022/01/16 14:00:34;;;;;;;;;;;;;;;6.99;90.70996;102459;;;;-78
2022/01/16 14:03:18;;;;;;;13.2;5.3;;;;;;;;;;;;;-79
2022/01/16 14:05:32;;;;;;;;;;;;;;;7;90.95215;102463.6;;;;-80
2022/01/16 14:10:36;;;;;;;;;;;;;;;7.01;90.60449;102470.7;;;;-81
2022/01/16 14:15:25;;;;;;;;;;;;;;;7.01;90.61328;102475.5;;;;-80
2022/01/16 14:20:46;;;;;;;;;;;;;;;6.99;90.68848;102486.3;;;;-79
2022/01/16 14:25:26;;;;;;;;;;;;;;;6.98;90.7168;102488.9;;;;-81
2022/01/16 14:30:25;;;;;;;;;;;;;;;6.98;91.07813;102489.4;;;;-80
2022/01/16 14:33:17;;;;;;;15.5;5.8;;;;;;;;;;;;;-81
2022/01/16 14:35:26;;;;;;;;;;;;;;;6.96;91.31445;102500.9;;;;-81
2022/01/16 14:40:25;;;;;;;;;;;;;;;6.93;91.62793;102502.8;;;;-81
2022/01/16 14:45:25;;;;;;;;;;;;;;;6.92;91.88672;102501.6;;;;-81
2022/01/16 14:50:25;;;;;;;;;;;;;;;6.89;91.99023;102507.2;;;;-81
2022/01/16 14:55:25;;;;;;;;;;;;;;;6.86;92.08105;102515.6;;;;-82
2022/01/16 15:00:25;;;;;;;;;;;;;;;6.82;92.12793;102506.8;;;;-81
2022/01/16 15:03:17;;;;;;;16.6;6.2;;;;;;;;;;;;;-80
2022/01/16 15:05:25;;;;;;;;;;;;;;;6.79;92.24219;102514.5;;;;-81
2022/01/16 15:10:30;;;;;;;;;;;;;;;6.75;92.30957;102523.7;;;;-79
2022/01/16 15:15:25;;;;;;;;;;;;;;;6.71;92.35547;102517.6;;;;-78
2022/01/16 15:20:28;;;;;;;;;;;;;;;6.67;92.42285;102524.3;;;;-77
2022/01/16 15:25:25;;;;;;;;;;;;;;;6.62;92.5;102526;;;;-78
2022/01/16 15:30:25;;;;;;;;;;;;;;;6.59;92.50586;102544.2;;;;-79
2022/01/16 15:33:17;;;;;;;20.3;7;;;;;;;;;;;;;-77
2022/01/16 15:35:25;;;;;;;;;;;;;;;6.55;92.58301;102546;;;;-77
2022/01/16 15:40:25;;;;;;;;;;;;;;;6.51;92.69531;102553.1;;;;-79
2022/01/16 15:45:25;;;;;;;;;;;;;;;6.48;92.78613;102552.4;;;;-81
2022/01/16 15:50:25;;;;;;;;;;;;;;;6.44;92.85449;102568.1;;;;-80
2022/01/16 15:55:34;;;;;;;;;;;;;;;6.39;92.91016;102574;;;;-81
2022/01/16 16:00:26;;;;;;;;;;;;;;;6.36;92.9043;102594.3;;;;-79
2022/01/16 16:03:17;;;;;;;15.7;7;;;;;;;;;;;;;-79
2022/01/16 16:05:26;;;;;;;;;;;;;;;6.32;92.99316;102609.5;;;;-80
2022/01/16 16:10:25;;;;;;;;;;;;;;;6.3;93.03125;102610.6;;;;-79
2022/01/16 16:15:26;;;;;;;;;;;;;;;6.24;93.01953;102621.1;;;;-80
2022/01/16 16:20:26;;;;;;;;;;;;;;;6.19;92.97461;102635.9;;;;-80
2022/01/16 16:25:26;;;;;;;;;;;;;;;6.12;92.9834;102647.4;;;;-80
2022/01/16 16:30:27;;;;;;;;;;;;;;;6.04;92.97852;102655.6;;;;-80
2022/01/16 16:33:20;;;;;;;30.1;13.2;;;;;;;;;;;;;-81
2022/01/16 16:35:27;;;;;;;;;;;;;;;5.99;92.9668;102674.8;;;;-78
2022/01/16 16:40:25;;;;;;;;;;;;;;;5.94;92.93457;102682.9;;;;-81
2022/01/16 16:45:25;;;;;;;;;;;;;;;5.87;92.88672;102687.6;;;;-81
2022/01/16 16:50:28;;;;;;;;;;;;;;;5.81;92.96973;102696.5;;;;-81
2022/01/16 16:55:25;;;;;;;;;;;;;;;5.82;92.96191;102704.4;;;;-81
2022/01/16 17:00:25;;;;;;;;;;;;;;;5.79;92.84766;102703.7;;;;-80
2022/01/16 17:03:18;;;;;;;44.6;20.5;;;;;;;;;;;;;-81
2022/01/16 17:05:25;;;;;;;;;;;;;;;5.75;92.9248;102703.7;;;;-80
2022/01/16 17:10:25;;;;;;;;;;;;;;;5.71;92.87305;102708.6;;;;-81
2022/01/16 17:15:25;;;;;;;;;;;;;;;5.72;92.92969;102715.2;;;;-81
2022/01/16 17:20:25;;;;;;;;;;;;;;;5.71;93.00391;102718.5;;;;-80
2022/01/16 17:25:25;;;;;;;;;;;;;;;5.7;93.10059;102724.3;;;;-80
2022/01/16 17:30:25;;;;;;;;;;;;;;;5.7;93.02441;102735;;;;-79
2022/01/16 17:33:18;;;;;;;71;32.2;;;;;;;;;;;;;-79
2022/01/16 17:35:30;;;;;;;;;;;;;;;5.71;93.05859;102733.4;;;;-80
2022/01/16 17:40:25;;;;;;;;;;;;;;;5.7;93.13281;102740.7;;;;-78
2022/01/16 17:45:25;;;;;;;;;;;;;;;5.7;93.27441;102753.2;;;;-80
2022/01/16 17:50:25;;;;;;;;;;;;;;;5.71;93.2334;102767.1;;;;-79
2022/01/16 17:55:25;;;;;;;;;;;;;;;5.72;93.23535;102770.2;;;;-80
2022/01/16 18:00:25;;;;;;;;;;;;;;;5.74;93.31543;102785.3;;;;-80
2022/01/16 18:03:18;;;;;;;48.4;20.8;;;;;;;;;;;;;-79
2022/01/16 18:05:25;;;;;;;;;;;;;;;5.75;93.39355;102785.8;;;;-78
2022/01/16 18:10:25;;;;;;;;;;;;;;;5.76;93.42969;102787.1;;;;-78
2022/01/16 18:15:25;;;;;;;;;;;;;;;5.78;93.49902;102799.7;;;;-80
2022/01/16 18:20:31;;;;;;;;;;;;;;;5.81;93.58105;102808;;;;-78
2022/01/16 18:25:25;;;;;;;;;;;;;;;5.83;93.69434;102812.2;;;;-79
2022/01/16 18:30:25;;;;;;;;;;;;;;;5.83;93.57227;102817;;;;-79
2022/01/16 18:33:18;;;;;;;29.4;11.2;;;;;;;;;;;;;-80
2022/01/16 18:35:25;;;;;;;;;;;;;;;5.85;93.66602;102826.4;;;;-79
2022/01/16 18:40:26;;;;;;;;;;;;;;;5.84;93.69824;102843.5;;;;-81
2022/01/16 18:45:26;;;;;;;;;;;;;;;5.85;93.66602;102848.7;;;;-80
2022/01/16 18:50:30;;;;;;;;;;;;;;;5.84;93.66406;102854.8;;;;-79
2022/01/16 18:55:25;;;;;;;;;;;;;;;5.83;93.70313;102859.6;;;;-79
2022/01/16 19:00:25;;;;;;;;;;;;;;;5.82;93.75781;102851.5;;;;-77
2022/01/16 19:03:18;;;;;;;18.6;7.4;;;;;;;;;;;;;-78
2022/01/16 19:05:25;;;;;;;;;;;;;;;5.8;93.6123;102862.1;;;;-77
2022/01/16 19:10:27;;;;;;;;;;;;;;;5.8;93.64551;102867.8;;;;-77
2022/01/16 19:15:25;;;;;;;;;;;;;;;5.78;93.62988;102880.6;;;;-77
2022/01/16 19:20:25;;;;;;;;;;;;;;;5.77;93.61719;102879.7;;;;-78
2022/01/16 19:25:25;;;;;;;;;;;;;;;5.77;93.57324;102877.1;;;;-78
2022/01/16 19:30:25;;;;;;;;;;;;;;;5.75;93.5459;102884.1;;;;-78
2022/01/16 19:33:18;;;;;;;14.8;5.8;;;;;;;;;;;;;-78
2022/01/16 19:35:26;;;;;;;;;;;;;;;5.74;93.59863;102893.6;;;;-78
2022/01/16 19:40:25;;;;;;;;;;;;;;;5.73;93.63965;102901.3;;;;-78
2022/01/16 19:45:25;;;;;;;;;;;;;;;5.72;93.70313;102907.5;;;;-78
2022/01/16 19:50:25;;;;;;;;;;;;;;;5.7;93.73242;102913.9;;;;-79
2022/01/16 19:55:25;;;;;;;;;;;;;;;5.7;93.83008;102912.4;;;;-79
2022/01/16 20:00:25;;;;;;;;;;;;;;;5.71;93.95215;102914.8;;;;-80
2022/01/16 20:03:18;;;;;;;16.7;4.3;;;;;;;;;;;;;-80
2022/01/16 20:05:25;;;;;;;;;;;;;;;5.72;93.93262;102922;;;;-80
2022/01/16 20:10:25;;;;;;;;;;;;;;;5.7;93.89551;102925.3;;;;-80
2022/01/16 20:15:25;;;;;;;;;;;;;;;5.7;93.89551;102934.2;;;;-79
2022/01/16 20:20:25;;;;;;;;;;;;;;;5.7;93.79785;102940.1;;;;-79
2022/01/16 20:25:25;;;;;;;;;;;;;;;5.69;93.84082;102946.8;;;;-80
2022/01/16 20:30:28;;;;;;;;;;;;;;;5.69;93.75195;102950.2;;;;-79
2022/01/16 20:33:18;;;;;;;13.3;3;;;;;;;;;;;;;-79
2022/01/16 20:35:25;;;;;;;;;;;;;;;5.67;93.68262;102956.8;;;;-80
2022/01/16 20:40:25;;;;;;;;;;;;;;;5.66;93.64648;102964.5;;;;-80
2022/01/16 20:45:26;;;;;;;;;;;;;;;5.63;93.5752;102962.2;;;;-79
2022/01/16 20:50:25;;;;;;;;;;;;;;;5.61;93.53809;102976.2;;;;-79
2022/01/16 20:55:26;;;;;;;;;;;;;;;5.57;93.44336;102982;;;;-80
2022/01/16 21:00:25;;;;;;;;;;;;;;;5.54;93.39355;102992.8;;;;-78
2022/01/16 21:03:18;;;;;;;12.2;2.2;;;;;;;;;;;;;-79
2022/01/16 21:05:25;;;;;;;;;;;;;;;5.51;93.34473;102992.6;;;;-79
2022/01/16 21:10:30;;;;;;;;;;;;;;;5.48;93.24707;102993.9;;;;-80
2022/01/16 21:15:25;;;;;;;;;;;;;;;5.45;93.25293;102997.5;;;;-79
2022/01/16 21:20:25;;;;;;;;;;;;;;;5.43;93.16113;103002.2;;;;-80
2022/01/16 21:25:25;;;;;;;;;;;;;;;5.41;93.15527;103018.3;;;;-79
2022/01/16 21:30:28;;;;;;;;;;;;;;;5.38;92.70313;103024.4;;;;-78
2022/01/16 21:33:18;;;;;;;13.2;1.8;;;;;;;;;;;;;-80
2022/01/16 21:35:25;;;;;;;;;;;;;;;5.37;92.59277;103037.1;;;;-80
2022/01/16 21:40:26;;;;;;;;;;;;;;;5.34;92.51074;103032.7;;;;-79
2022/01/16 21:45:25;;;;;;;;;;;;;;;5.31;92.50488;103027.3;;;;-79
2022/01/16 21:50:25;;;;;;;;;;;;;;;5.29;92.56836;103013.6;;;;-79
2022/01/16 21:55:25;;;;;;;;;;;;;;;5.28;92.48535;103018.1;;;;-79
2022/01/16 22:00:25;;;;;;;;;;;;;;;5.27;92.26758;103029.9;;;;-79
2022/01/16 22:03:19;;;;;;;9.7;1.4;;;;;;;;;;;;;-79
2022/01/16 22:05:25;;;;;;;;;;;;;;;5.24;92.11914;103036.9;;;;-79
2022/01/16 22:10:25;;;;;;;;;;;;;;;5.23;91.86621;103043.8;;;;-79
2022/01/16 22:15:25;;;;;;;;;;;;;;;5.22;91.72461;103053.8;;;;-79
2022/01/16 22:20:25;;;;;;;;;;;;;;;5.21;91.63184;103068;;;;-80
2022/01/16 22:25:25;;;;;;;;;;;;;;;5.2;91.50098;103081.9;;;;-79
2022/01/16 22:30:25;;;;;;;;;;;;;;;5.19;91.59766;103084.1;;;;-78
2022/01/16 22:33:18;;;;;;;8.6;1.4;;;;;;;;;;;;;-79
2022/01/16 22:35:25;;;;;;;;;;;;;;;5.18;91.45215;103080.3;;;;-79
2022/01/16 22:40:25;;;;;;;;;;;;;;;5.16;91.5918;103074.2;;;;-79
2022/01/16 22:45:26;;;;;;;;;;;;;;;5.15;91.51172;103077.7;;;;-78
2022/01/16 22:50:25;;;;;;;;;;;;;;;5.13;91.5293;103081.9;;;;-78
2022/01/16 22:55:26;;;;;;;;;;;;;;;5.12;92.04102;103083.2;;;;-78
2022/01/16 23:00:26;;;;;;;;;;;;;;;5.12;92.28906;103088.2;;;;-79
2022/01/16 23:03:18;;;;;;;5.6;1;;;;;;;;;;;;;-78
2022/01/16 23:05:25;;;;;;;;;;;;;;;5.1;92.10059;103101.7;;;;-79
2022/01/16 23:10:25;;;;;;;;;;;;;;;5.09;92.26172;103112.6;;;;-79
2022/01/16 23:15:25;;;;;;;;;;;;;;;5.1;92.40527;103111.9;;;;-79
2022/01/16 23:20:25;;;;;;;;;;;;;;;5.09;92.51074;103113.7;;;;-78
2022/01/16 23:25:25;;;;;;;;;;;;;;;5.08;92.55176;103117.3;;;;-78
2022/01/16 23:30:25;;;;;;;;;;;;;;;5.07;92.57324;103110.7;;;;-79
2022/01/16 23:33:18;;;;;;;8.5;0.9;;;;;;;;;;;;;-78
2022/01/16 23:35:25;;;;;;;;;;;;;;;5.07;92.13867;103115.4;;;;-78
2022/01/16 23:40:25;;;;;;;;;;;;;;;5.07;92.19238;103116.7;;;;-79
2022/01/16 23:45:28;;;;;;;;;;;;;;;5.08;92.3252;103116;;;;-80
2022/01/16 23:50:25;;;;;;;;;;;;;;;5.09;92.26172;103122.1;;;;-80
2022/01/16 23:55:26;;;;;;;;;;;;;;;5.09;92.21875;103139;;;;-79
